PWSweather.com
Personal Weather Stations
Station Observations
KJ4AJP
Beautiful Downtown Gardner, Martin, TN 38237

Beautiful Downtown GardnerMartin, TN 38237

Lat: 36.358, Lon: -88.8994

Elevation: 384.3

Station Type: TP1080WC

http://weather.mambm.com/

Latest ConditionsUpdated 7:00:02 AM CDT Friday, Jun 23, 2017
Currently Today's Max Today's Min Today's Average
Temperature 77.9°F25.5°C 77.9°F25.5°C 77.0°F25.0°C 77.5°F25.3°C
Dew Point 77.0°F25.0°C 77.5°F25.3°C 76.8°F24.9°C 77.1°F25.1°C
Winds 3.8 mph SSE6.1 kmh SSE 9.2 mph S14.8 kmh S - 4.3 mph 6.9 kmh
Wind Gusts 13.0 mph20.9 kmh 17.4 mph28.0 kmh - -
Humidity 97% 99% 97% 99%
Pressure 29.71 in1006.1 mb 29.78 in1008.5 mb 29.71 in1006.1 mb -
Precipitation - 0.01 in0.3 mm - -
Hour Temp Dew Point Humidity Winds Wind Gusts Pressure Precip Precip Rate Daily Precip Total
07:00 AM 77.9°F25.5°C 77.0°F25.0°C 97% 3.8 mph SSE6.1 kmh SSE 13.0 mph20.9 kmh 29.71 in1006.1 mb 0.00 in0.0 mm 0.00 in0.0 mm 0.01 in0.3 mm
06:45 AM 77.9°F25.5°C 77.0°F25.0°C 97% 4.5 mph SSE7.2 kmh SSE 17.4 mph28.0 kmh 29.71 in1006.1 mb 0.00 in0.0 mm 0.00 in0.0 mm 0.01 in0.3 mm
06:30 AM 77.9°F25.5°C 77.0°F25.0°C 97% 4.5 mph S7.2 kmh S 15.9 mph25.6 kmh 29.71 in1006.1 mb 0.00 in0.0 mm 0.00 in0.0 mm 0.01 in0.3 mm
06:15 AM 77.9°F25.5°C 77.4°F25.2°C 98% 7.6 mph S12.2 kmh S 15.9 mph25.6 kmh 29.72 in1006.4 mb 0.00 in0.0 mm 0.00 in0.0 mm 0.01 in0.3 mm
06:00 AM 77.7°F25.4°C 77.2°F25.1°C 98% 4.5 mph S7.2 kmh S 15.9 mph25.6 kmh 29.72 in1006.4 mb 0.00 in0.0 mm 0.00 in0.0 mm 0.01 in0.3 mm
05:45 AM 77.7°F25.4°C 77.2°F25.1°C 98% 3.8 mph SSE6.1 kmh SSE 13.6 mph21.9 kmh 29.72 in1006.4 mb 0.00 in0.0 mm 0.00 in0.0 mm 0.01 in0.3 mm
05:30 AM 77.7°F25.4°C 77.5°F25.3°C 99% 3.8 mph S6.1 kmh S 13.0 mph20.9 kmh 29.73 in1006.8 mb 0.00 in0.0 mm 0.00 in0.0 mm 0.01 in0.3 mm
05:15 AM 77.5°F25.3°C 77.3°F25.2°C 99% 9.2 mph S14.8 kmh S 16.8 mph27.0 kmh 29.73 in1006.8 mb 0.00 in0.0 mm 0.00 in0.0 mm 0.01 in0.3 mm
05:00 AM 77.5°F25.3°C 77.3°F25.2°C 99% 6.0 mph S9.7 kmh S 13.0 mph20.9 kmh 29.72 in1006.4 mb 0.00 in0.0 mm 0.00 in0.0 mm 0.01 in0.3 mm
04:45 AM 77.4°F25.2°C 77.1°F25.1°C 99% 3.8 mph SSE6.1 kmh SSE 12.1 mph19.5 kmh 29.72 in1006.4 mb 0.00 in0.0 mm 0.00 in0.0 mm 0.01 in0.3 mm
04:30 AM 77.5°F25.3°C 77.3°F25.2°C 99% 2.2 mph SSE3.5 kmh SSE 10.7 mph17.2 kmh 29.73 in1006.8 mb 0.00 in0.0 mm 0.00 in0.0 mm 0.01 in0.3 mm
04:15 AM 77.5°F25.3°C 77.3°F25.2°C 99% 4.5 mph SSE7.2 kmh SSE 15.9 mph25.6 kmh 29.73 in1006.8 mb 0.00 in0.0 mm 0.00 in0.0 mm 0.01 in0.3 mm
04:00 AM 77.5°F25.3°C 77.3°F25.2°C 99% 3.8 mph SSE6.1 kmh SSE 11.4 mph18.3 kmh 29.74 in1007.1 mb 0.00 in0.0 mm 0.00 in0.0 mm 0.01 in0.3 mm
03:45 AM 77.5°F25.3°C 77.3°F25.2°C 99% 3.8 mph SE6.1 kmh SE 8.3 mph13.4 kmh 29.73 in1006.8 mb 0.00 in0.0 mm 0.00 in0.0 mm 0.01 in0.3 mm
03:30 AM 77.5°F25.3°C 77.3°F25.2°C 99% 3.8 mph SE6.1 kmh SE 10.7 mph17.2 kmh 29.74 in1007.1 mb 0.00 in0.0 mm 0.00 in0.0 mm 0.01 in0.3 mm
03:15 AM 77.4°F25.2°C 77.1°F25.1°C 99% 3.1 mph SSE5.0 kmh SSE 12.1 mph19.5 kmh 29.74 in1007.1 mb 0.00 in0.0 mm 0.00 in0.0 mm 0.01 in0.3 mm
03:00 AM 77.4°F25.2°C 77.1°F25.1°C 99% 4.5 mph SSE7.2 kmh SSE 9.8 mph15.8 kmh 29.74 in1007.1 mb 0.00 in0.0 mm 0.00 in0.0 mm 0.01 in0.3 mm
02:45 AM 77.4°F25.2°C 77.1°F25.1°C 99% 2.2 mph S3.5 kmh S 15.9 mph25.6 kmh 29.74 in1007.1 mb 0.00 in0.0 mm 0.00 in0.0 mm 0.01 in0.3 mm
02:30 AM 77.4°F25.2°C 77.1°F25.1°C 99% 3.8 mph S6.1 kmh S 16.8 mph27.0 kmh 29.75 in1007.5 mb 0.00 in0.0 mm 0.00 in0.0 mm 0.01 in0.3 mm
02:15 AM 77.4°F25.2°C 77.1°F25.1°C 99% 3.8 mph SE6.1 kmh SE 11.4 mph18.3 kmh 29.75 in1007.5 mb 0.00 in0.0 mm 0.00 in0.0 mm 0.01 in0.3 mm
02:00 AM 77.4°F25.2°C 77.1°F25.1°C 99% 4.5 mph SSE7.2 kmh SSE 12.1 mph19.5 kmh 29.75 in1007.5 mb 0.00 in0.0 mm 0.00 in0.0 mm 0.01 in0.3 mm
01:45 AM 77.4°F25.2°C 77.1°F25.1°C 99% 5.4 mph SE8.7 kmh SE 10.7 mph17.2 kmh 29.75 in1007.5 mb 0.00 in0.0 mm 0.00 in0.0 mm 0.01 in0.3 mm
01:30 AM 77.4°F25.2°C 77.1°F25.1°C 99% 3.1 mph SSE5.0 kmh SSE 9.2 mph14.8 kmh 29.76 in1007.8 mb 0.01 in0.3 mm 0.00 in0.0 mm 0.01 in0.3 mm
01:15 AM 77.2°F25.1°C 76.9°F24.9°C 99% 5.4 mph S8.7 kmh S 13.0 mph20.9 kmh 29.77 in1008.1 mb 0.01 in0.3 mm 0.00 in0.0 mm 0.01 in0.3 mm
01:00 AM 77.0°F25.0°C 76.8°F24.9°C 99% 3.8 mph SE6.1 kmh SE 12.1 mph19.5 kmh 29.77 in1008.1 mb 0.01 in0.3 mm 0.00 in0.0 mm 0.01 in0.3 mm
12:45 AM 77.0°F25.0°C 76.8°F24.9°C 99% 3.8 mph S6.1 kmh S 6.9 mph11.1 kmh 29.78 in1008.5 mb 0.01 in0.3 mm 0.04 in1.0 mm 0.01 in0.3 mm
12:30 AM 77.2°F25.1°C 76.9°F24.9°C 99% 2.2 mph SSE3.5 kmh SSE 7.6 mph12.2 kmh 29.77 in1008.1 mb 0.00 in0.0 mm 0.00 in0.0 mm 0.00 in0.0 mm
12:15 AM 77.4°F25.2°C 77.1°F25.1°C 99% 5.4 mph SSE8.7 kmh SSE 11.4 mph18.3 kmh 29.77 in1008.1 mb 0.00 in0.0 mm 0.00 in0.0 mm 0.00 in0.0 mm
12:00 AM 77.5°F25.3°C 77.3°F25.2°C 99% 3.8 mph SE6.1 kmh SE 13.6 mph21.9 kmh 29.77 in1008.1 mb 0.00 in0.0 mm 0.00 in0.0 mm 0.00 in0.0 mm